Data for 01/29/2017

Time Sea-Level Adjusted Pressure Absolute Pressure Temperature Relative Humidity Dew Point   
(mb) (inHg) (mb) (inHg) (C) (F) (%) (C) (F)
00:05 1032 30.47 861 25.43 0.5 32.8 46 -9.8 14.4
00:10 1032 30.47 861 25.43 0.3 32.5 47 -9.8 14.3
00:15 1032 30.47 861 25.43 -0.1 31.8 50 -9.3 15.2
00:20 1032 30.47 861 25.43 -0.9 30.3 54 -9.2 15.4
00:25 1032 30.47 861 25.43 -1.4 29.5 53 -9.7 14.6
00:30 1032 30.47 861 25.43 -1.4 29.4 52 -9.9 14.1
00:35 1032 30.47 861 25.43 -1.4 29.5 54 -9.6 14.8
00:40 1032 30.47 861 25.43 -1.7 28.9 54 -9.7 14.5
00:45 1032 30.47 861 25.43 -1.6 29.1 54 -9.7 14.6
00:50 1032 30.47 861 25.43 -1.8 28.8 55 -9.6 14.7
00:55 1032 30.47 861 25.43 -1.8 28.7 56 -9.5 15
01:00 1032 30.47 861 25.43 -1.8 28.7 56 -9.4 15.1
01:05 1032 30.47 861 25.43 -2.2 28.1 58 -9.4 15.1
01:10 1032 30.47 861 25.43 -2.3 27.9 58 -9.5 14.9
01:15 1032 30.47 861 25.43 -2.3 27.8 58 -9.5 15
01:20 1032 30.47 861 25.43 -2.4 27.7 58 -9.5 14.9
01:25 1032 30.47 861 25.43 -2.3 27.8 58 -9.5 14.9
01:30 1032 30.47 861 25.43 -2.2 28.1 57 -9.7 14.6
01:35 1032 30.47 861 25.43 -2.1 28.3 56 -9.7 14.6
01:40 1032 30.47 861 25.43 -2.1 28.2 56 -9.8 14.3
01:45 1032 30.47 861 25.43 -2.3 27.9 55 -10.1 13.7
01:50 1031 30.45 861 25.43 -2.1 28.2 55 -10.1 13.8
01:55 1031 30.45 861 25.43 -2.2 28 57 -9.7 14.5
02:00 1031 30.45 861 25.43 -2.1 28.2 55 -10.1 13.8
02:05 1031 30.45 860 25.4 -1.8 28.8 51 -10.6 13
02:10 1031 30.45 860 25.4 -1.5 29.2 53 -9.9 14.2
02:15 1031 30.45 860 25.4 -1.5 29.3 52 -10.1 13.9
02:20 1031 30.45 860 25.4 -1.7 29 53 -9.9 14.1
02:25 1031 30.45 860 25.4 -1.9 28.7 54 -10 14
02:30 1031 30.45 860 25.4 -1.9 28.6 54 -10.1 13.9
02:35 1031 30.45 860 25.4 -1.8 28.7 54 -10 14
02:40 1031 30.45 860 25.4 -1.8 28.8 53 -10.2 13.6
02:45 1031 30.45 860 25.4 -1.7 29 52 -10.4 13.3
02:50 1031 30.45 860 25.4 -1.9 28.6 53 -10.1 13.7
02:55 1031 30.45 860 25.4 -2.1 28.3 53 -10.3 13.4
03:00 1031 30.45 860 25.4 -1.9 28.7 52 -10.4 13.2
03:05 1031 30.45 860 25.4 -1.6 29 52 -10.4 13.3
03:10 1031 30.45 860 25.4 -1.6 29 52 -10.3 13.4
03:15 1031 30.45 860 25.4 -1.8 28.8 51 -10.6 13
03:20 1031 30.45 860 25.4 -1.8 28.8 52 -10.5 13.1
03:25 1031 30.45 860 25.4 -1.6 29.1 51 -10.5 13.1
03:30 1031 30.45 860 25.4 -1.5 29.2 51 -10.3 13.4
03:35 1031 30.45 860 25.4 -1.7 29 52 -10.3 13.4
03:40 1031 30.45 860 25.4 -1.8 28.8 53 -10.1 13.7
03:45 1031 30.45 860 25.4 -1.7 28.9 51 -10.4 13.2
03:50 1031 30.45 860 25.4 -1.4 29.4 50 -10.5 13.1
03:55 1031 30.45 860 25.4 -1.3 29.6 50 -10.6 13
04:00 1031 30.45 860 25.4 -1.3 29.7 50 -10.4 13.4
04:05 1031 30.45 860 25.4 -1.3 29.7 50 -10.4 13.3
04:10 1031 30.45 860 25.4 -1 30.1 50 -10.3 13.5
04:15 1031 30.45 860 25.4 -1 30.1 50 -10.2 13.7
04:20 1031 30.45 860 25.4 -1.2 29.8 52 -9.9 14.1
04:25 1031 30.45 860 25.4 -1.3 29.7 50 -10.5 13.1
04:30 1031 30.45 860 25.4 -1.2 29.8 50 -10.4 13.3
04:35 1031 30.45 860 25.4 -1 30.3 48 -10.7 12.7
04:40 1031 30.45 860 25.4 -0.5 31.1 48 -10.1 13.8
04:45 1031 30.45 860 25.4 -0.3 31.4 46 -10.5 13.1
04:50 1031 30.45 860 25.4 -0.2 31.6 46 -10.4 13.3
04:55 1031 30.45 860 25.4 -0.4 31.3 49 -9.8 14.3
05:00 1031 30.45 860 25.4 -0.8 30.5 50 -10 14
05:05 1031 30.45 860 25.4 -1.2 29.9 51 -9.9 14.1
05:10 1031 30.45 860 25.4 -1.3 29.7 49 -10.6 12.9
05:15 1030 30.42 860 25.4 -0.9 30.5 49 -10.3 13.4
05:20 1031 30.45 860 25.4 -0.8 30.6 49 -10.1 13.8
05:25 1030 30.42 860 25.4 -0.9 30.4 50 -10.2 13.6
05:30 1030 30.42 860 25.4 -1.1 30 51 -10 14
05:35 1031 30.45 860 25.4 -1.2 29.8 51 -10.1 13.8
05:40 1030 30.42 860 25.4 -1.2 29.9 51 -10.1 13.9
05:45 1030 30.42 860 25.4 -1.2 29.9 51 -10.1 13.9
05:50 1030 30.42 860 25.4 -1 30.2 51 -10 13.9
05:55 1030 30.42 860 25.4 -0.9 30.4 49 -10.3 13.4
06:00 1030 30.42 860 25.4 -0.8 30.6 48 -10.4 13.2
06:05 1031 30.45 860 25.4 -0.6 30.8 48 -10.5 13.2
06:10 1031 30.45 860 25.4 -0.6 30.8 48 -10.5 13.1
06:15 1031 30.45 860 25.4 -0.6 30.9 48 -10.3 13.5
06:20 1031 30.45 860 25.4 -0.6 30.9 48 -10.4 13.2
06:25 1030 30.42 860 25.4 -0.5 31.1 47 -10.4 13.3
06:30 1030 30.42 860 25.4 -0.6 30.9 48 -10.2 13.7
06:35 1030 30.42 860 25.4 -0.7 30.7 48 -10.4 13.3
06:40 1030 30.42 860 25.4 -0.7 30.7 49 -10.1 13.8
06:45 1030 30.42 860 25.4 -0.9 30.4 49 -10.2 13.6
06:50 1030 30.42 860 25.4 -0.9 30.4 49 -10.3 13.4
06:55 1030 30.42 860 25.4 -0.8 30.6 49 -10.2 13.6
07:00 1030 30.42 859 25.37 -0.8 30.6 49 -10.3 13.5
07:05 1030 30.42 859 25.37 -0.5 31 50 -9.8 14.3
07:10 1030 30.42 860 25.4 -0.5 31.1 51 -9.4 15
07:15 1030 30.42 859 25.37 -0.4 31.3 51 -9.3 15.2
07:20 1030 30.42 859 25.37 -0.6 30.9 54 -8.8 16.1
07:25 1030 30.42 859 25.37 -0.9 30.4 54 -9.2 15.5
07:30 1030 30.42 859 25.37 -0.7 30.8 54 -8.9 16
07:35 1030 30.42 859 25.37 -0.7 30.7 54 -8.9 16
07:40 1030 30.42 859 25.37 -0.7 30.8 52 -9.3 15.2
07:45 1030 30.42 859 25.37 -0.5 31 51 -9.4 15.1
07:50 1030 30.42 859 25.37 -0.6 31 52 -9.4 15.2
07:55 1030 30.42 859 25.37 -0.7 30.7 51 -9.5 14.9
08:00 1030 30.42 859 25.37 -0.7 30.7 52 -9.5 14.9
08:05 1030 30.42 859 25.37 -0.9 30.4 54 -9.1 15.6
08:10 1030 30.42 859 25.37 -1.4 29.5 57 -8.9 16
08:15 1030 30.42 859 25.37 -2.3 27.9 59 -9.3 15.3
08:20 1030 30.42 859 25.37 -2.4 27.7 59 -9.4 15.1
08:25 1030 30.42 859 25.37 -2.2 28 57 -9.5 14.8
08:30 1030 30.42 859 25.37 -1.4 29.4 54 -9.6 14.8
08:35 1030 30.42 859 25.37 -1.4 29.4 55 -9.4 15
08:40 1030 30.42 859 25.37 -1.2 29.8 53 -9.5 14.8
08:45 1030 30.42 859 25.37 -1.3 29.6 54 -9.6 14.8
08:50 1030 30.42 859 25.37 -1.3 29.7 53 -9.7 14.5
08:55 1030 30.42 859 25.37 -1 30.2 52 -9.8 14.4
09:00 1030 30.42 859 25.37 -0.8 30.6 52 -9.5 14.8
09:05 1030 30.42 860 25.4 -1.1 30.1 53 -9.5 14.9
09:10 1030 30.42 859 25.37 -1.4 29.6 54 -9.6 14.7
09:15 1030 30.42 859 25.37 -1.5 29.3 56 -9.2 15.4
09:20 1030 30.42 859 25.37 -1.8 28.7 55 -9.6 14.7
09:25 1030 30.42 859 25.37 -1.9 28.6 56 -9.6 14.6
09:30 1030 30.42 859 25.37 -1.5 29.3 53 -9.8 14.3
09:35 1030 30.42 859 25.37 -0.9 30.4 50 -10 14
09:40 1030 30.42 859 25.37 -0.3 31.5 48 -10 13.9
09:45 1030 30.42 859 25.37 -0.4 31.3 50 -9.6 14.7
09:50 1030 30.42 859 25.37 -0.5 31.1 50 -9.8 14.4
09:55 1030 30.42 859 25.37 -0.3 31.5 49 -9.7 14.6
10:00 1030 30.42 859 25.37 0.2 32.3 48 -9.6 14.7
10:05 1030 30.42 859 25.37 0.7 33.2 48 -9.2 15.5
10:10 1030 30.42 859 25.37 0.6 33.1 50 -8.6 16.5
10:15 1030 30.42 859 25.37 0.2 32.4 51 -8.7 16.3
10:20 1030 30.42 859 25.37 -0.2 31.7 54 -8.3 17
10:25 1030 30.42 859 25.37 -0.3 31.5 55 -8.4 17
10:30 1030 30.42 859 25.37 -0.3 31.4 54 -8.5 16.6
10:35 1030 30.42 859 25.37 -0.5 31.1 55 -8.5 16.7
10:40 1029 30.39 859 25.37 -0.7 30.8 56 -8.4 16.8
10:45 1029 30.39 859 25.37 -0.5 31.1 54 -8.7 16.3
10:50 1030 30.42 859 25.37 -0.4 31.2 54 -8.7 16.3
10:55 1030 30.42 859 25.37 -0.3 31.6 53 -8.7 16.3
11:00 1030 30.42 859 25.37 -0.2 31.6 53 -8.6 16.5
11:05 1030 30.42 859 25.37 -0.1 31.8 54 -8.5 16.8
11:10 1030 30.42 859 25.37 -0.1 31.9 52 -8.7 16.3
11:15 1030 30.42 859 25.37 0 32 51 -9 15.8
11:20 1030 30.42 859 25.37 0.4 32.7 49 -9.1 15.6
11:25 1030 30.42 859 25.37 0.6 33.1 50 -8.5 16.6
11:30 1030 30.42 859 25.37 1.1 33.9 47 -9 15.8
11:35 1030 30.42 859 25.37 1.3 34.4 47 -8.8 16.1
11:40 1029 30.39 859 25.37 1.5 34.7 45 -9.2 15.5
11:45 1029 30.39 858 25.34 1.6 35 44 -9.3 15.2
11:50 1029 30.39 858 25.34 1.7 35 46 -8.7 16.3
11:55 1029 30.39 858 25.34 1.8 35.2 44 -9.2 15.5
12:00 1029 30.39 858 25.34 2.2 35.9 43 -9.2 15.4
12:05 1029 30.39 858 25.34 2.5 36.5 41 -9.4 15.1
12:10 1029 30.39 858 25.34 2.5 36.4 43 -8.8 16.1
12:15 1029 30.39 858 25.34 2.6 36.6 41 -9.3 15.3
12:20 1029 30.39 858 25.34 2.7 36.8 41 -9.2 15.4
12:25 1029 30.39 858 25.34 2.7 36.9 41 -9.1 15.6
12:30 1029 30.39 858 25.34 2.9 37.2 41 -9.1 15.6
12:35 1029 30.39 858 25.34 3.3 37.9 40 -9.1 15.6
12:40 1029 30.39 858 25.34 3.8 38.8 37 -9.6 14.7
12:45 1029 30.39 858 25.34 4 39.2 39 -8.7 16.4
12:50 1029 30.39 858 25.34 4.2 39.6 36 -9.4 15.1
12:55 1029 30.39 858 25.34 4.7 40.5 35 -9.5 14.9
13:00 1029 30.39 858 25.34 5 41.1 34 -9.4 15
13:05 1029 30.39 858 25.34 5.1 41.2 35 -9.1 15.6
13:10 1029 30.39 858 25.34 5 41 35 -9.1 15.7
13:15 1028 30.36 858 25.34 5.1 41.2 37 -8.5 16.8
13:20 1028 30.36 858 25.34 5.1 41.2 39 -7.7 18.2
13:25 1028 30.36 858 25.34 4.7 40.5 43 -6.9 19.6
13:30 1028 30.36 858 25.34 4.1 39.5 47 -6.1 21.1
13:35 1028 30.36 857 25.31 3.4 38.1 46 -7.1 19.2
13:40 1028 30.36 857 25.31 3.6 38.5 46 -6.9 19.5
13:45 1028 30.36 857 25.31 3.9 39.1 45 -6.8 19.7
13:50 1028 30.36 857 25.31 3.5 38.3 45 -7.4 18.6
13:55 1028 30.36 857 25.31 4 39.2 44 -7.3 18.8
14:00 1028 30.36 857 25.31 3.7 38.7 43 -7.6 18.3
14:05 1028 30.36 857 25.31 3.7 38.7 43 -7.9 17.8
14:10 1028 30.36 857 25.31 4.4 40 39 -8.3 17.1
14:15 1028 30.36 857 25.31 4.8 40.6 39 -7.9 17.8
14:20 1028 30.36 857 25.31 4.9 40.8 39 -7.9 17.7
14:25 1028 30.36 857 25.31 5 41 38 -8.2 17.2
14:30 1028 30.36 857 25.31 4.8 40.6 42 -7.1 19.2
14:35 1028 30.36 857 25.31 4.2 39.6 43 -7.2 19
14:40 1027 30.33 857 25.31 3.9 39 46 -6.8 19.7
14:45 1027 30.33 856 25.28 4.2 39.5 40 -8.3 17.1
14:50 1027 30.33 856 25.28 4.7 40.4 40 -8 17.7
14:55 1027 30.33 856 25.28 5 41.1 38 -8.1 17.4
15:00 1027 30.33 856 25.28 5.3 41.5 38 -7.9 17.8
15:05 1027 30.33 856 25.28 5.2 41.4 37 -8.3 17
15:10 1027 30.33 856 25.28 5.3 41.5 34 -9.3 15.3
15:15 1027 30.33 856 25.28 5.2 41.3 34 -9.4 15.2
15:20 1027 30.33 856 25.28 5.4 41.7 34 -9.3 15.2
15:25 1027 30.33 856 25.28 5.9 42.6 30 -10.2 13.6
15:30 1027 30.33 856 25.28 6.4 43.5 32 -9.2 15.5
15:35 1027 30.33 856 25.28 6.2 43.1 32 -9.1 15.6
15:40 1027 30.33 856 25.28 6 42.8 32 -9.6 14.7
15:45 1027 30.33 856 25.28 5.8 42.5 30 -10.3 13.5
15:50 1027 30.33 856 25.28 6.1 42.9 31 -9.9 14.2
15:55 1027 30.33 856 25.28 6.2 43.1 31 -9.8 14.4
16:00 1027 30.33 856 25.28 6.1 42.9 31 -9.8 14.4
16:05 1026 30.3 856 25.28 6 42.8 30 -10.3 13.5
16:10 1026 30.3 856 25.28 5.7 42.2 33 -9.6 14.8
16:15 1026 30.3 856 25.28 5.7 42.2 32 -9.8 14.4
16:20 1026 30.3 856 25.28 5.8 42.4 31 -9.9 14.1
16:25 1026 30.3 855 25.25 5.9 42.7 31 -9.9 14.2
16:30 1026 30.3 855 25.25 5.8 42.4 32 -9.8 14.4
16:35 1026 30.3 855 25.25 5.9 42.6 32 -9.5 14.8
16:40 1026 30.3 855 25.25 6 42.8 33 -9.2 15.5
16:45 1026 30.3 855 25.25 6 42.8 34 -8.6 16.6
16:50 1026 30.3 855 25.25 5.9 42.7 35 -8.4 16.9
16:55 1026 30.3 855 25.25 5.8 42.5 35 -8.3 17
17:00 1026 30.3 855 25.25 5.6 42.2 35 -8.8 16.2
17:05 1026 30.3 855 25.25 5.9 42.7 31 -9.8 14.4
17:10 1026 30.3 855 25.25 6.8 44.2 29 -9.8 14.3
17:15 1026 30.3 855 25.25 6.4 43.5 33 -8.7 16.3
17:20 1026 30.3 855 25.25 5.7 42.2 33 -9.4 15
17:25 1026 30.3 855 25.25 5.5 41.9 33 -9.5 14.8
17:30 1026 30.3 855 25.25 5.4 41.7 34 -9.4 15.2
17:35 1026 30.3 855 25.25 5.3 41.5 35 -8.9 15.9
17:40 1026 30.3 855 25.25 5.4 41.6 35 -8.8 16.2
17:45 1026 30.3 855 25.25 5.6 42 35 -8.6 16.5
17:50 1025 30.27 855 25.25 5.4 41.8 35 -8.8 16.1
17:55 1025 30.27 854 25.22 5.3 41.5 38 -7.9 17.8
18:00 1025 30.27 854 25.22 5.3 41.5 36 -8.6 16.6
18:05 1025 30.27 854 25.22 5.2 41.3 37 -8.5 16.7
18:10 1025 30.27 854 25.22 5.2 41.4 38 -8 17.6
18:15 1025 30.27 854 25.22 5.1 41.2 38 -8 17.7
18:20 1025 30.27 854 25.22 4.7 40.4 41 -7.6 18.3
18:25 1025 30.27 854 25.22 4.2 39.6 39 -8.6 16.5
18:30 1025 30.27 854 25.22 4 39.1 40 -8.4 16.8
18:35 1025 30.27 854 25.22 3.9 39 39 -9 15.8
18:40 1025 30.27 854 25.22 4 39.1 38 -9.1 15.5
18:45 1025 30.27 854 25.22 3.9 39 40 -8.5 16.8
18:50 1024 30.24 854 25.22 3.7 38.7 41 -8.4 17
18:55 1024 30.24 854 25.22 3.6 38.6 40 -8.7 16.3
19:00 1024 30.24 854 25.22 3.6 38.5 39 -9 15.9
19:05 1024 30.24 854 25.22 3.7 38.7 39 -9 15.7
19:10 1024 30.24 854 25.22 4.2 39.6 35 -10 14
19:15 1024 30.24 854 25.22 4.8 40.7 34 -9.7 14.5
19:20 1024 30.24 853 25.19 5 41 38 -8.2 17.3
19:25 1024 30.24 853 25.19 4.3 39.7 44 -7.1 19.3
19:30 1024 30.24 853 25.19 3.3 37.9 46 -7.4 18.7
19:35 1024 30.24 853 25.19 2.6 36.7 51 -6.4 20.5
19:40 1024 30.24 853 25.19 1.9 35.5 54 -6.5 20.3
19:45 1024 30.24 853 25.19 2.5 36.4 49 -7.2 19
19:50 1024 30.24 853 25.19 3 37.5 50 -6.4 20.4
19:55 1024 30.24 853 25.19 2.9 37.2 50 -6.4 20.4
20:00 1024 30.24 853 25.19 2.8 37 51 -6.4 20.6
20:05 1024 30.24 853 25.19 2.5 36.6 52 -6.4 20.5
20:10 1024 30.24 853 25.19 2.9 37.1 52 -6.1 21
20:15 1024 30.24 853 25.19 2.7 36.8 47 -7.5 18.5
20:20 1024 30.24 853 25.19 2.8 37.1 53 -5.9 21.3
20:25 1024 30.24 853 25.19 2.2 36 50 -7.2 19
20:30 1024 30.24 853 25.19 2.5 36.5 49 -7.2 19.1
20:35 1024 30.24 853 25.19 2.9 37.1 46 -7.6 18.4
20:40 1024 30.24 853 25.19 3.5 38.3 46 -7.1 19.2
20:45 1024 30.24 853 25.19 3 37.5 44 -7.9 17.7
20:50 1024 30.24 853 25.19 3.7 38.6 40 -8.7 16.3
20:55 1023 30.21 853 25.19 4.7 40.5 36 -9.1 15.6
21:00 1023 30.21 853 25.19 5.1 41.1 38 -8.2 17.2
21:05 1023 30.21 853 25.19 4.9 40.9 35 -9.2 15.5
21:10 1023 30.21 853 25.19 5 41 37 -8.6 16.5
21:15 1023 30.21 853 25.19 5 40.9 38 -8.3 17.1
21:20 1023 30.21 852 25.16 4.7 40.5 39 -8.2 17.3
21:25 1023 30.21 852 25.16 4.6 40.2 38 -8.5 16.6
21:30 1023 30.21 852 25.16 4.6 40.3 38 -8.6 16.6
21:35 1023 30.21 852 25.16 4.2 39.6 39 -8.6 16.5
21:40 1023 30.21 852 25.16 4.2 39.5 38 -9.1 15.7
21:45 1023 30.21 852 25.16 4.4 40 38 -8.8 16.2
21:50 1023 30.21 852 25.16 4.4 40 37 -9.1 15.6
21:55 1023 30.21 852 25.16 4.7 40.4 37 -8.8 16.2
22:00 1023 30.21 852 25.16 4.4 39.8 38 -8.8 16.2
22:05 1023 30.21 852 25.16 4.1 39.4 38 -9.1 15.7
22:10 1023 30.21 852 25.16 4.2 39.6 36 -9.7 14.6
22:15 1023 30.21 852 25.16 4.6 40.3 35 -9.4 15
22:20 1023 30.21 852 25.16 4.6 40.2 37 -9 15.9
22:25 1023 30.21 852 25.16 4.2 39.6 39 -8.6 16.4
22:30 1023 30.21 852 25.16 4.4 40 35 -9.7 14.6
22:35 1023 30.21 852 25.16 4.7 40.4 36 -9.3 15.3
22:40 1023 30.21 853 25.19 4.4 40 36 -9.2 15.4
22:45 1023 30.21 853 25.19 4.3 39.8 36 -9.5 14.9
22:50 1023 30.21 852 25.16 4.5 40 35 -9.6 14.7
22:55 1023 30.21 852 25.16 4.4 39.9 36 -9.4 15.1
23:00 1023 30.21 852 25.16 4.3 39.7 35 -9.9 14.2
23:05 1023 30.21 852 25.16 4.5 40 34 -10 14
23:10 1023 30.21 852 25.16 4.5 40 38 -8.8 16.1
23:15 1023 30.21 852 25.16 4 39.2 36 -9.8 14.4
23:20 1023 30.21 852 25.16 3.9 39 35 -10.1 13.8
23:25 1023 30.21 852 25.16 3.9 39 37 -9.6 14.8
23:30 1023 30.21 852 25.16 3.6 38.5 37 -9.7 14.6
23:35 1023 30.21 852 25.16 3.5 38.4 38 -9.6 14.8
23:40 1023 30.21 852 25.16 3.4 38 37 -9.9 14.2
23:45 1023 30.21 852 25.16 3.5 38.2 36 -10.4 13.3
23:50 1023 30.21 852 25.16 3.7 38.7 36 -10.1 13.8
23:55 1023 30.21 852 25.16 3.7 38.7 38 -9.5 14.9
24:00 1023 30.21 853 25.19 3.4 38.1 38 -9.7 14.6